createdAt,value
2023-03-13T00:01:17.608Z,5.43
2023-03-13T00:03:44.729Z,6.05
2023-03-13T00:06:11.320Z,6.80
2023-03-13T00:08:38.542Z,5.63
2023-03-13T00:11:07.297Z,6.10
2023-03-13T00:13:34.144Z,5.68
2023-03-13T00:16:06.226Z,6.72
2023-03-13T00:18:32.660Z,5.68
2023-03-13T00:21:04.723Z,5.28
2023-03-13T00:23:31.156Z,5.65
2023-03-13T00:25:59.725Z,5.18
2023-03-13T00:28:31.909Z,6.25
2023-03-13T00:31:16.039Z,4.80
2023-03-13T00:33:44.936Z,4.85
2023-03-13T00:36:15.047Z,4.82
2023-03-13T00:38:42.273Z,4.65
2023-03-13T00:41:11.349Z,5.88
2023-03-13T00:43:38.779Z,5.30
2023-03-13T00:46:05.485Z,6.20
2023-03-13T00:48:32.440Z,7.03
2023-03-13T00:50:59.487Z,8.32
2023-03-13T00:53:26.294Z,8.10
2023-03-13T00:56:02.804Z,5.20
2023-03-13T00:58:31.961Z,6.47
2023-03-13T01:01:08.716Z,6.18
2023-03-13T01:03:36.433Z,6.43
2023-03-13T01:06:06.166Z,5.57
2023-03-13T01:08:32.780Z,5.85
2023-03-13T01:11:06.064Z,6.85
2023-03-13T01:13:33.304Z,6.45
2023-03-13T01:16:08.076Z,6.60
2023-03-13T01:18:36.419Z,6.47
2023-03-13T01:21:03.946Z,6.40
2023-03-13T01:23:30.766Z,6.50
2023-03-13T01:25:57.912Z,7.47
2023-03-13T01:28:26.472Z,6.55
2023-03-13T01:30:53.703Z,6.28
2023-03-13T01:33:20.135Z,7.05
2023-03-13T01:35:46.650Z,7.40
2023-03-13T01:38:13.139Z,7.38
2023-03-13T01:40:47.689Z,6.57
2023-03-13T01:43:27.336Z,6.72
2023-03-13T01:45:54.213Z,6.13
2023-03-13T01:48:25.141Z,5.88
2023-03-13T01:53:20.337Z,6.75
2023-03-13T01:55:47.378Z,6.55
2023-03-13T01:58:13.900Z,6.43
2023-03-13T02:00:43.848Z,6.70
2023-03-13T02:03:17.662Z,6.73
2023-03-13T02:05:47.678Z,6.07
2023-03-13T02:08:22.958Z,7.50
2023-03-13T02:11:26.371Z,6.30
2023-03-13T02:13:53.910Z,6.60
2023-03-13T02:16:23.793Z,7.45
2023-03-13T02:18:50.540Z,7.73
2023-03-13T02:21:35.925Z,8.57
2023-03-13T02:24:13.044Z,8.27
2023-03-13T02:26:39.488Z,6.75
2023-03-13T02:29:06.041Z,6.55
2023-03-13T02:31:33.566Z,6.90
2023-03-13T02:34:01.690Z,6.82
2023-03-13T02:36:29.953Z,6.20
2023-03-13T02:39:00.871Z,7.45
2023-03-13T02:43:55.668Z,6.85
2023-03-13T02:46:22.414Z,6.28
2023-03-13T02:48:56.174Z,6.07
2023-03-13T02:51:28.833Z,6.75
2023-03-13T02:54:00.752Z,6.00
2023-03-13T02:56:30.295Z,6.57
2023-03-13T02:58:56.927Z,6.60
2023-03-13T03:01:23.245Z,6.07
2023-03-13T03:03:49.754Z,6.00
2023-03-13T03:06:16.477Z,7.63
2023-03-13T03:08:43.881Z,9.35
2023-03-13T03:11:12.766Z,8.18
2023-03-13T03:13:39.469Z,7.00
2023-03-13T03:16:10.965Z,6.20
2023-03-13T03:18:38.639Z,7.18
2023-03-13T03:21:05.479Z,6.82
2023-03-13T03:23:36.414Z,6.47
2023-03-13T03:28:30.171Z,6.30
2023-03-13T03:30:56.770Z,6.15
2023-03-13T03:33:24.124Z,4.70
2023-03-13T03:35:50.872Z,6.45
2023-03-13T03:38:17.335Z,5.82
2023-03-13T03:40:49.853Z,5.25
2023-03-13T03:43:16.236Z,5.60
2023-03-13T03:45:42.655Z,5.32
2023-03-13T03:48:09.196Z,5.75
2023-03-13T03:50:35.682Z,6.85
2023-03-13T03:53:02.114Z,7.00
2023-03-13T03:55:28.789Z,6.60
2023-03-13T03:57:55.140Z,5.90
2023-03-13T04:00:21.906Z,5.38
2023-03-13T04:02:48.260Z,5.47
2023-03-13T04:05:14.920Z,5.75
2023-03-13T04:07:41.409Z,6.20
2023-03-13T04:10:08.900Z,6.30
2023-03-13T04:12:35.254Z,6.43
2023-03-13T04:15:01.702Z,6.13
2023-03-13T04:17:28.082Z,6.13
2023-03-13T04:19:54.556Z,5.57
2023-03-13T04:22:20.912Z,4.60
2023-03-13T04:24:47.402Z,4.93
2023-03-13T04:27:13.886Z,5.70
2023-03-13T04:29:40.289Z,5.47
2023-03-13T04:32:07.443Z,6.07
2023-03-13T04:34:35.159Z,5.57
2023-03-13T04:37:02.110Z,5.88
2023-03-13T04:39:28.884Z,8.32
2023-03-13T04:41:56.055Z,7.50
2023-03-13T04:44:23.145Z,10.38
2023-03-13T04:46:49.746Z,11.13
2023-03-13T04:49:16.637Z,12.95
2023-03-13T04:51:44.577Z,11.27
2023-03-13T04:54:11.483Z,11.40
2023-03-13T04:56:43.732Z,11.63
2023-03-13T04:59:14.068Z,10.55
2023-03-13T05:01:41.635Z,9.65
2023-03-13T05:04:08.263Z,9.00
2023-03-13T05:06:36.175Z,9.63
2023-03-13T05:09:03.501Z,8.13
2023-03-13T05:11:30.513Z,7.63
2023-03-13T05:13:58.019Z,8.07
2023-03-13T05:16:24.877Z,6.78
2023-03-13T05:18:51.263Z,8.15
2023-03-13T05:21:17.750Z,7.43
2023-03-13T05:23:44.756Z,7.32
2023-03-13T05:26:11.483Z,6.63
2023-03-13T05:28:37.794Z,6.50
2023-03-13T05:31:04.657Z,7.20
2023-03-13T05:33:32.151Z,6.10
2023-03-13T05:35:58.552Z,6.45
2023-03-13T05:38:25.446Z,5.25
2023-03-13T05:40:51.764Z,5.38
2023-03-13T05:43:20.417Z,4.55
2023-03-13T05:45:46.972Z,5.93
2023-03-13T05:48:14.566Z,6.50
2023-03-13T05:50:40.978Z,6.43
2023-03-13T05:53:11.036Z,7.80
2023-03-13T05:55:37.410Z,6.47
2023-03-13T05:58:06.055Z,7.10
2023-03-13T06:00:32.583Z,7.32
2023-03-13T06:02:58.937Z,6.82
2023-03-13T06:05:25.566Z,6.93
2023-03-13T06:07:53.060Z,8.05
2023-03-13T06:10:19.854Z,5.40
2023-03-13T06:12:53.053Z,5.10
2023-03-13T06:15:19.383Z,5.70
2023-03-13T06:17:45.711Z,5.15
2023-03-13T06:20:12.708Z,6.18
2023-03-13T06:22:39.059Z,4.90
2023-03-13T06:25:06.005Z,5.40
2023-03-13T06:27:32.498Z,5.30
2023-03-13T06:29:58.954Z,4.15
2023-03-13T06:32:25.675Z,5.45
2023-03-13T06:34:52.206Z,4.70
2023-03-13T06:37:18.885Z,4.38
2023-03-13T06:39:45.673Z,6.20
2023-03-13T06:42:12.010Z,5.05
2023-03-13T06:44:38.721Z,5.95
2023-03-13T06:47:05.386Z,6.10
2023-03-13T06:49:32.062Z,6.07
2023-03-13T06:52:01.254Z,4.97
2023-03-13T06:54:28.007Z,7.45
2023-03-13T06:56:54.898Z,6.75
2023-03-13T06:59:21.418Z,4.28
2023-03-13T07:01:48.080Z,4.97
2023-03-13T07:04:14.894Z,3.90
2023-03-13T07:06:41.401Z,4.18
2023-03-13T07:09:07.935Z,3.33
2023-03-13T07:11:34.644Z,3.13
2023-03-13T07:14:15.243Z,2.50
2023-03-13T07:16:44.221Z,1.92
2023-03-13T07:19:10.718Z,1.88
2023-03-13T07:21:37.256Z,1.73
2023-03-13T07:24:04.016Z,1.40
2023-03-13T07:26:30.451Z,1.00
2023-03-13T07:28:57.166Z,0.70
2023-03-13T07:31:23.759Z,1.63
2023-03-13T07:33:50.624Z,1.10
2023-03-13T07:36:17.057Z,1.40
2023-03-13T07:38:43.502Z,0.90
2023-03-13T07:41:12.284Z,0.90
2023-03-13T07:43:38.957Z,0.90
2023-03-13T07:46:07.186Z,1.10
2023-03-13T07:48:38.505Z,0.80
2023-03-13T07:51:07.912Z,0.60
2023-03-13T07:53:35.204Z,1.13
2023-03-13T07:56:06.834Z,1.60
2023-03-13T07:58:36.093Z,1.38
2023-03-13T08:01:10.031Z,1.02
2023-03-13T08:03:37.196Z,1.35
2023-03-13T08:06:06.895Z,0.82
2023-03-13T08:08:33.782Z,2.92
2023-03-13T08:11:02.359Z,2.10
2023-03-13T08:13:31.628Z,2.10
2023-03-13T08:16:08.147Z,1.90
2023-03-13T08:18:38.980Z,1.80
2023-03-13T08:23:34.029Z,0.95
2023-03-13T08:26:19.769Z,0.82
2023-03-13T08:28:49.136Z,1.52
2023-03-13T08:31:23.045Z,0.82
2023-03-13T08:33:50.703Z,1.00
2023-03-13T08:36:24.949Z,1.60
2023-03-13T08:38:53.042Z,0.75
2023-03-13T08:41:28.129Z,0.80
2023-03-13T08:43:56.313Z,0.90
2023-03-13T08:46:23.830Z,1.33
2023-03-13T08:48:54.832Z,0.82
2023-03-13T08:51:24.174Z,1.50
2023-03-13T08:53:52.508Z,1.20
2023-03-13T08:56:22.186Z,1.50
2023-03-13T08:58:55.860Z,0.77
2023-03-13T09:01:26.902Z,0.70
2023-03-13T09:03:55.125Z,1.20
2023-03-13T09:06:22.028Z,1.02
2023-03-13T09:08:48.834Z,0.57
2023-03-13T09:11:22.108Z,0.70
2023-03-13T09:13:50.822Z,0.75
2023-03-13T09:16:26.641Z,1.52
2023-03-13T09:18:53.885Z,0.60
2023-03-13T09:21:22.749Z,1.02
2023-03-13T09:23:49.694Z,1.15
2023-03-13T09:26:20.999Z,1.02
2023-03-13T09:28:49.609Z,1.15
2023-03-13T09:31:42.457Z,1.08
2023-03-13T09:34:11.657Z,1.38
2023-03-13T09:36:38.493Z,1.20
2023-03-13T09:39:08.646Z,1.17
2023-03-13T09:41:40.347Z,0.90
2023-03-13T09:44:43.228Z,1.05
2023-03-13T09:47:24.252Z,0.70
2023-03-13T09:50:01.800Z,1.17
2023-03-13T09:52:40.364Z,0.90
2023-03-13T09:55:21.626Z,0.75
2023-03-13T10:00:59.928Z,1.40
2023-03-13T10:03:39.560Z,1.23
2023-03-13T10:06:18.176Z,1.23
2023-03-13T10:08:44.638Z,0.90
2023-03-13T10:11:25.967Z,1.35
2023-03-13T10:14:11.183Z,1.13
2023-03-13T10:17:24.151Z,1.10
2023-03-13T10:19:58.048Z,1.30
2023-03-13T10:22:31.391Z,1.20
2023-03-13T10:25:03.340Z,1.20
2023-03-13T10:27:29.714Z,1.70
2023-03-13T10:29:56.085Z,1.83
2023-03-13T10:32:22.552Z,1.40
2023-03-13T10:34:59.927Z,1.17
2023-03-13T10:37:44.084Z,1.60
2023-03-13T10:40:25.883Z,1.30
2023-03-13T10:42:59.908Z,1.23
2023-03-13T10:45:38.380Z,1.52
2023-03-13T10:48:18.522Z,1.42
2023-03-13T10:50:47.958Z,1.27
2023-03-13T10:53:29.646Z,1.30
2023-03-13T10:56:16.648Z,1.35
2023-03-13T10:58:52.378Z,1.20
2023-03-13T11:01:24.180Z,1.83
2023-03-13T11:03:53.909Z,1.42
2023-03-13T11:06:34.687Z,1.48
2023-03-13T11:09:14.910Z,1.55
2023-03-13T11:11:56.123Z,1.30
2023-03-13T11:14:25.357Z,1.38
2023-03-13T11:17:14.997Z,1.40
2023-03-13T11:20:12.251Z,1.67
2023-03-13T11:22:55.939Z,1.60
2023-03-13T11:25:28.373Z,1.42
2023-03-13T11:28:34.269Z,1.73
2023-03-13T11:31:07.804Z,1.65
2023-03-13T11:34:02.641Z,1.55
2023-03-13T11:36:36.470Z,1.50
2023-03-13T11:39:12.750Z,1.50
2023-03-13T11:42:01.246Z,1.42
2023-03-13T11:44:59.334Z,1.55
2023-03-13T11:47:46.279Z,1.02
2023-03-13T11:50:21.906Z,1.77
2023-03-13T11:53:08.494Z,1.40
2023-03-13T11:56:13.108Z,1.83
2023-03-13T11:59:02.653Z,1.45
2023-03-13T12:01:36.437Z,1.50
2023-03-13T12:04:13.059Z,1.35
2023-03-13T12:06:51.029Z,1.70
2023-03-13T12:10:05.646Z,1.33
2023-03-13T12:13:00.135Z,1.70
2023-03-13T12:15:39.081Z,1.40
2023-03-13T12:18:23.410Z,1.20
2023-03-13T12:20:58.400Z,3.08
2023-03-13T12:23:44.022Z,2.65
2023-03-13T12:26:21.134Z,1.30
2023-03-13T12:28:56.678Z,1.50
2023-03-13T12:31:41.066Z,1.10
2023-03-13T12:34:13.487Z,2.20
2023-03-13T12:37:03.882Z,1.55
2023-03-13T12:39:39.410Z,1.20
2023-03-13T12:42:36.157Z,1.88
2023-03-13T12:45:03.137Z,4.25
2023-03-13T12:47:36.070Z,2.40
2023-03-13T12:50:27.417Z,7.22
2023-03-13T12:53:36.934Z,1.10
2023-03-13T12:56:18.935Z,1.80
2023-03-13T12:59:04.458Z,1.35
2023-03-13T13:01:35.055Z,1.20
2023-03-13T13:04:07.993Z,1.52
2023-03-13T13:07:01.649Z,3.20
2023-03-13T13:09:33.999Z,1.67
2023-03-13T13:12:16.117Z,1.20
2023-03-13T13:14:48.318Z,1.25
2023-03-13T13:17:25.564Z,1.20
2023-03-13T13:19:52.497Z,1.08
2023-03-13T13:22:35.436Z,1.40
2023-03-13T13:25:11.991Z,1.30
2023-03-13T13:27:38.618Z,1.40
2023-03-13T13:30:25.210Z,1.27
2023-03-13T13:32:57.467Z,1.65
2023-03-13T13:35:34.386Z,1.77
2023-03-13T13:38:19.556Z,1.13
2023-03-13T13:41:25.933Z,1.20
2023-03-13T13:44:22.465Z,1.23
2023-03-13T13:46:49.131Z,1.23
2023-03-13T13:49:24.867Z,2.65
2023-03-13T13:52:19.191Z,1.80
2023-03-13T13:54:56.674Z,1.85
2023-03-13T13:57:37.229Z,1.50
2023-03-13T14:02:53.932Z,1.70
2023-03-13T14:05:30.493Z,1.40
2023-03-13T14:08:06.349Z,1.60
2023-03-13T14:10:42.389Z,1.88
2023-03-13T14:13:22.042Z,1.60
2023-03-13T14:15:50.603Z,2.17
2023-03-13T14:18:25.702Z,1.60
2023-03-13T14:20:55.645Z,2.90
2023-03-13T14:23:50.315Z,1.33
2023-03-13T14:26:25.916Z,1.52
2023-03-13T14:28:58.305Z,1.30
2023-03-13T14:31:51.370Z,2.30
2023-03-13T14:34:17.897Z,2.13
2023-03-13T14:36:57.120Z,1.92
2023-03-13T14:39:31.104Z,2.10
2023-03-13T14:42:04.219Z,3.23
2023-03-13T14:44:35.355Z,1.30
2023-03-13T14:47:08.280Z,1.60
2023-03-13T14:49:37.105Z,2.00
2023-03-13T14:52:20.722Z,2.20
2023-03-13T14:54:58.945Z,1.30
2023-03-13T14:57:27.722Z,1.15
2023-03-13T14:59:56.088Z,2.10
2023-03-13T15:02:30.781Z,1.10
2023-03-13T15:05:02.593Z,2.35
2023-03-13T15:07:42.738Z,1.67
2023-03-13T15:10:26.278Z,1.30
2023-03-13T15:12:52.885Z,1.60
2023-03-13T15:15:19.535Z,1.15
2023-03-13T15:17:46.081Z,1.50
2023-03-13T15:20:14.193Z,1.00
2023-03-13T15:22:44.923Z,2.00
2023-03-13T15:25:22.678Z,2.28
2023-03-13T15:27:50.330Z,1.35
2023-03-13T15:30:22.193Z,1.50
2023-03-13T15:32:52.409Z,1.10
2023-03-13T15:35:30.607Z,1.10
2023-03-13T15:37:59.117Z,1.27
2023-03-13T15:40:27.092Z,1.35
2023-03-13T15:42:54.824Z,1.55
2023-03-13T15:45:21.614Z,1.35
2023-03-13T15:47:48.395Z,0.88
2023-03-13T15:50:18.337Z,1.20
2023-03-13T15:52:44.998Z,1.40
2023-03-13T15:55:13.828Z,1.08
2023-03-13T15:57:46.389Z,1.60
2023-03-13T16:00:20.410Z,1.40
2023-03-13T16:02:47.224Z,1.02
2023-03-13T16:05:13.688Z,1.00
2023-03-13T16:07:40.185Z,1.52
2023-03-13T16:10:17.018Z,1.30
2023-03-13T16:12:43.901Z,1.25
2023-03-13T16:15:10.816Z,1.08
2023-03-13T16:17:37.267Z,1.00
2023-03-13T16:20:05.153Z,1.00
2023-03-13T16:22:31.543Z,1.20
2023-03-13T16:24:58.347Z,1.25
2023-03-13T16:27:24.936Z,1.10
2023-03-13T16:29:51.446Z,1.48
2023-03-13T16:32:17.823Z,0.93
2023-03-13T16:34:44.237Z,1.20
2023-03-13T16:37:16.065Z,1.20
2023-03-13T16:39:43.837Z,1.10
2023-03-13T16:42:10.504Z,1.20
2023-03-13T16:44:36.964Z,1.00
2023-03-13T16:47:15.469Z,1.10
2023-03-13T16:49:41.818Z,1.20
2023-03-13T16:52:14.180Z,1.02
2023-03-13T16:54:40.579Z,1.38
2023-03-13T16:57:12.770Z,1.50
2023-03-13T16:59:39.705Z,1.60
2023-03-13T17:02:14.342Z,2.10
2023-03-13T17:04:43.190Z,1.83
2023-03-13T17:07:18.711Z,1.67
2023-03-13T17:09:45.622Z,1.50
2023-03-13T17:12:12.007Z,1.80
2023-03-13T17:14:38.393Z,1.40
2023-03-13T17:17:04.822Z,1.60
2023-03-13T17:19:32.249Z,1.90
2023-03-13T17:21:58.758Z,1.83
2023-03-13T17:24:25.293Z,1.63
2023-03-13T17:26:51.875Z,1.90
2023-03-13T17:29:18.575Z,1.45
2023-03-13T17:31:45.045Z,1.50
2023-03-13T17:34:11.436Z,1.40
2023-03-13T17:36:37.901Z,1.40
2023-03-13T17:39:07.100Z,1.90
2023-03-13T17:41:35.157Z,1.92
2023-03-13T17:44:01.850Z,2.00
2023-03-13T17:46:39.178Z,1.70
2023-03-13T17:49:05.709Z,2.10
2023-03-13T17:51:33.752Z,1.83
2023-03-13T17:54:01.008Z,1.60
2023-03-13T17:56:41.028Z,1.90
2023-03-13T17:59:12.956Z,1.73
2023-03-13T18:01:40.021Z,2.28
2023-03-13T18:04:06.686Z,2.15
2023-03-13T18:06:39.879Z,1.60
2023-03-13T18:09:13.471Z,1.65
2023-03-13T18:11:39.938Z,1.58
2023-03-13T18:14:06.561Z,2.25
2023-03-13T18:16:38.320Z,2.53
2023-03-13T18:19:06.506Z,2.50
2023-03-13T18:21:33.508Z,2.92
2023-03-13T18:24:00.328Z,4.55
2023-03-13T18:26:33.255Z,3.58
2023-03-13T18:29:00.963Z,3.00
2023-03-13T18:31:32.952Z,3.30
2023-03-13T18:33:59.751Z,3.08
2023-03-13T18:36:27.376Z,2.90
2023-03-13T18:38:54.215Z,3.08
2023-03-13T18:41:20.655Z,2.53
2023-03-13T18:43:47.421Z,3.22
2023-03-13T18:46:23.022Z,3.08
2023-03-13T18:48:50.514Z,2.63
2023-03-13T18:51:19.871Z,2.60
2023-03-13T18:53:47.997Z,2.78
2023-03-13T18:56:20.643Z,2.50
2023-03-13T18:58:50.607Z,2.72
2023-03-13T19:01:25.038Z,1.55
2023-03-13T19:03:52.383Z,2.08
2023-03-13T19:06:25.392Z,2.42
2023-03-13T19:08:55.086Z,2.67
2023-03-13T19:11:25.787Z,2.58
2023-03-13T19:13:52.337Z,1.48
2023-03-13T19:16:31.880Z,1.75
2023-03-13T19:18:58.813Z,4.22
2023-03-13T19:21:28.068Z,1.73
2023-03-13T19:23:55.762Z,2.10
2023-03-13T19:26:35.271Z,2.83
2023-03-13T19:29:02.315Z,3.25
2023-03-13T19:31:28.826Z,3.47
2023-03-13T19:33:55.298Z,3.25
2023-03-13T19:36:24.250Z,5.63
2023-03-13T19:57:10.552Z,3.63
2023-03-13T19:59:37.264Z,4.40
2023-03-13T20:05:32.625Z,3.80
2023-03-13T20:08:01.724Z,3.88
2023-03-13T20:10:28.698Z,4.00
2023-03-13T20:12:55.449Z,3.55
2023-03-13T20:15:22.271Z,4.70
2023-03-13T20:17:50.470Z,6.78
2023-03-13T20:20:17.191Z,6.95
2023-03-13T20:22:43.556Z,7.30
2023-03-13T20:25:11.855Z,7.88
2023-03-13T20:27:38.219Z,6.90
2023-03-13T20:30:06.678Z,6.20
2023-03-13T20:32:33.286Z,6.65
2023-03-13T20:34:59.642Z,7.22
2023-03-13T20:37:26.188Z,4.80
2023-03-13T20:39:52.803Z,1.27
2023-03-13T20:42:20.357Z,1.08
2023-03-13T20:44:46.906Z,0.70
2023-03-13T20:47:14.359Z,0.63
2023-03-13T20:49:40.892Z,0.98
2023-03-13T20:52:07.545Z,0.82
2023-03-13T20:54:34.252Z,0.60
2023-03-13T20:57:00.602Z,1.17
2023-03-13T20:59:27.044Z,0.93
2023-03-13T21:01:53.493Z,1.73
2023-03-13T21:04:19.955Z,1.90
2023-03-13T21:06:48.094Z,1.20
2023-03-13T21:09:14.415Z,1.38
2023-03-13T21:11:41.085Z,1.65
2023-03-13T21:14:07.527Z,1.75
2023-03-13T21:16:34.222Z,1.92
2023-03-13T21:19:00.755Z,1.50
2023-03-13T21:21:27.701Z,1.33
2023-03-13T21:23:54.122Z,2.40
2023-03-13T21:26:20.806Z,2.30
2023-03-13T21:28:48.588Z,1.92
2023-03-13T21:31:17.375Z,2.72
2023-03-13T21:33:45.232Z,2.92
2023-03-13T21:36:13.655Z,1.85
2023-03-13T21:38:41.933Z,1.52
2023-03-13T21:41:14.214Z,1.88
2023-03-13T21:43:42.791Z,1.90
2023-03-13T21:46:14.868Z,1.52
2023-03-13T21:48:43.409Z,1.52
2023-03-13T21:51:13.441Z,1.20
2023-03-13T21:53:39.901Z,1.10
2023-03-13T21:56:07.521Z,1.45
2023-03-13T21:58:34.642Z,1.73
2023-03-13T22:01:01.356Z,1.67
2023-03-13T22:03:27.814Z,1.45
2023-03-13T22:05:54.307Z,1.38
2023-03-13T22:08:21.048Z,1.13
2023-03-13T22:10:52.930Z,1.40
2023-03-13T22:13:19.311Z,1.10
2023-03-13T22:15:46.994Z,0.93
2023-03-13T22:18:20.637Z,1.00
2023-03-13T22:20:46.972Z,1.00
2023-03-13T22:23:17.359Z,1.13
2023-03-13T22:25:44.420Z,1.50
2023-03-13T22:28:11.819Z,1.30
2023-03-13T22:30:39.438Z,1.23
2023-03-13T22:33:07.488Z,0.80
2023-03-13T22:35:35.303Z,1.23
2023-03-13T22:38:03.798Z,1.85
2023-03-13T22:40:30.150Z,1.25
2023-03-13T22:42:57.526Z,1.35
2023-03-13T22:45:25.071Z,2.05
2023-03-13T22:47:52.339Z,1.90
2023-03-13T22:50:19.380Z,2.10
2023-03-13T22:52:45.826Z,1.95
2023-03-13T22:55:12.681Z,1.98
2023-03-13T22:57:40.801Z,1.73
2023-03-13T23:00:07.942Z,2.30
2023-03-13T23:02:35.515Z,1.73
2023-03-13T23:05:03.774Z,1.65
2023-03-13T23:07:30.369Z,1.48
2023-03-13T23:09:58.193Z,1.60
2023-03-13T23:12:25.832Z,2.03
2023-03-13T23:14:53.082Z,1.92
2023-03-13T23:17:19.861Z,2.05
2023-03-13T23:19:48.848Z,2.05
2023-03-13T23:22:15.339Z,1.90
2023-03-13T23:24:41.701Z,2.17
2023-03-13T23:27:08.492Z,1.80
2023-03-13T23:29:38.135Z,2.10
2023-03-13T23:32:05.072Z,1.92
2023-03-13T23:34:31.860Z,1.77
2023-03-13T23:36:59.486Z,1.70
2023-03-13T23:39:26.220Z,2.00
2023-03-13T23:41:53.734Z,2.25
2023-03-13T23:44:20.306Z,1.27
2023-03-13T23:46:47.563Z,1.33
2023-03-13T23:49:17.959Z,1.25
2023-03-13T23:51:45.943Z,1.48
2023-03-13T23:54:12.328Z,1.25
2023-03-13T23:56:39.845Z,1.27
2023-03-13T23:59:06.434Z,1.27
